MMLM/LMM METAR and TAF weather

Enter ICAO airport designator
Station Type Date Time Source
MMLM METAR 2022/01/26 14:09 UTC NOAA

MMLM 261409Z RTD 00000KT 1/8SM FG FEW220 09/08 A3003 RMK 8/004 RTS


Station Type Date Time Source
MMLM Decoded METAR 2022/01/26 14:09 UTC NOAA

Los Mochis Airport, Mexico (MMLM) 25-41N 109-05W
Jan 26, 2022 - 09:09 AM EST / 2022.01.26 1409 UTC
Wind: Calm:0
Visibility: 1/8 mile(s):0
Sky conditions: mostly clear
Weather: fog
Temperature: 48 F (9 C)
Dew Point: 46 F (8 C)
Relative Humidity: 93%
Pressure (altimeter): 30.03 in. Hg (1016 hPa)
ob: MMLM 261409Z RTD 00000KT 1/8SM FG FEW220 09/08 A3003 RMK 8/004 RTS
cycle: 14

Station Type Date Time Source
MMLM TAF 2022/01/26 14:24 UTC NOAA

TAF
AMD MMLM 261416Z 2614/2706 00000KT 1/2SM FG VV001
FM261530 00000KT 3SM BR HZ SCT220
FM261600 27005KT P6SM SCT220
BECMG 2621/2622 32018KT
FM270200 32010KT P6SM BKN220

Example: see airport list